createdAt,value
2022-12-28T00:01:26.515Z,80.63
2022-12-28T00:03:54.246Z,82.72
2022-12-28T00:06:23.313Z,73.10
2022-12-28T00:08:53.764Z,77.78
2022-12-28T00:11:28.049Z,76.43
2022-12-28T00:13:59.705Z,71.93
2022-12-28T00:16:26.318Z,76.47
2022-12-28T00:18:54.348Z,74.40
2022-12-28T00:21:21.116Z,74.72
2022-12-28T00:23:52.859Z,76.63
2022-12-28T00:26:20.156Z,75.13
2022-12-28T00:28:48.120Z,73.30
2022-12-28T00:31:15.282Z,72.28
2022-12-28T00:33:42.528Z,77.97
2022-12-28T00:36:12.399Z,76.53
2022-12-28T00:38:39.737Z,76.95
2022-12-28T00:41:07.421Z,73.72
2022-12-28T00:43:34.559Z,81.20
2022-12-28T00:46:01.644Z,78.28
2022-12-28T00:48:28.697Z,86.47
2022-12-28T00:51:07.694Z,83.45
2022-12-28T00:53:34.430Z,84.05
2022-12-28T00:56:06.079Z,83.40
2022-12-28T00:58:33.422Z,83.07
2022-12-28T01:01:00.648Z,81.00
2022-12-28T01:03:27.481Z,82.80
2022-12-28T01:05:54.313Z,80.85
2022-12-28T01:08:21.380Z,76.03
2022-12-28T01:10:48.068Z,74.63
2022-12-28T01:13:14.925Z,76.30
2022-12-28T01:15:41.680Z,70.88
2022-12-28T01:18:08.347Z,73.03
2022-12-28T01:20:35.416Z,67.72
2022-12-28T01:23:02.079Z,73.82
2022-12-28T01:25:28.694Z,69.90
2022-12-28T01:27:55.407Z,65.53
2022-12-28T01:30:22.085Z,66.10
2022-12-28T01:32:48.850Z,71.90
2022-12-28T01:35:15.571Z,71.05
2022-12-28T01:37:42.339Z,68.43
2022-12-28T01:40:13.715Z,64.88
2022-12-28T01:42:41.438Z,69.55
2022-12-28T01:45:18.349Z,64.20
2022-12-28T01:47:47.807Z,65.20
2022-12-28T01:50:19.506Z,65.55
2022-12-28T01:52:55.014Z,70.28
2022-12-28T01:55:25.875Z,71.60
2022-12-28T01:58:05.873Z,73.22
2022-12-28T02:00:33.380Z,67.25
2022-12-28T02:03:14.079Z,68.45
2022-12-28T02:05:46.031Z,66.32
2022-12-28T02:08:31.099Z,61.03
2022-12-28T02:10:57.879Z,63.25
2022-12-28T02:13:26.058Z,65.72
2022-12-28T02:15:52.904Z,62.63
2022-12-28T02:18:21.617Z,65.00
2022-12-28T02:21:09.849Z,64.45
2022-12-28T02:23:39.213Z,65.00
2022-12-28T02:26:36.016Z,69.13
2022-12-28T02:29:54.064Z,62.10
2022-12-28T02:32:31.402Z,61.78
2022-12-28T02:35:05.281Z,64.57
2022-12-28T02:37:38.897Z,66.07
2022-12-28T02:40:11.820Z,63.67
2022-12-28T02:42:40.459Z,61.08
2022-12-28T02:45:45.110Z,61.83
2022-12-28T02:48:30.605Z,61.28
2022-12-28T02:51:23.385Z,64.32
2022-12-28T02:53:55.989Z,62.65
2022-12-28T02:56:51.496Z,64.97
2022-12-28T02:59:28.970Z,61.95
2022-12-28T03:02:27.489Z,60.25
2022-12-28T03:05:41.425Z,63.05
2022-12-28T03:08:22.704Z,65.60
2022-12-28T03:11:09.639Z,62.38
2022-12-28T03:13:56.304Z,61.00
2022-12-28T03:16:29.339Z,65.60
2022-12-28T03:19:21.721Z,60.03
2022-12-28T03:22:08.788Z,62.33
2022-12-28T03:24:56.271Z,63.55
2022-12-28T03:27:41.801Z,61.88
2022-12-28T03:30:32.356Z,61.63
2022-12-28T03:32:59.694Z,60.42
2022-12-28T03:36:16.500Z,64.90
2022-12-28T03:38:43.196Z,62.72
2022-12-28T03:41:16.037Z,60.90
2022-12-28T03:43:51.144Z,67.85
2022-12-28T03:46:29.700Z,67.18
2022-12-28T03:48:59.383Z,62.55
2022-12-28T03:51:28.331Z,65.28
2022-12-28T03:53:55.737Z,64.97
2022-12-28T03:56:25.707Z,63.15
2022-12-28T03:58:52.987Z,62.22
2022-12-28T04:01:20.508Z,66.15
2022-12-28T04:03:47.800Z,62.28
2022-12-28T04:06:16.586Z,65.30
2022-12-28T04:08:44.587Z,67.45
2022-12-28T04:11:12.345Z,64.32
2022-12-28T04:13:39.275Z,63.15
2022-12-28T04:16:09.103Z,61.63
2022-12-28T04:18:36.080Z,60.72
2022-12-28T04:21:03.519Z,60.38
2022-12-28T04:23:32.076Z,67.95
2022-12-28T04:26:02.932Z,63.42
2022-12-28T04:28:30.626Z,59.63
2022-12-28T04:30:58.741Z,59.00
2022-12-28T04:33:27.152Z,58.15
2022-12-28T04:35:54.355Z,60.72
2022-12-28T04:38:21.451Z,59.97
2022-12-28T04:40:48.156Z,60.72
2022-12-28T04:43:14.846Z,59.55
2022-12-28T04:45:41.554Z,56.35
2022-12-28T04:48:08.361Z,63.80
2022-12-28T04:50:36.862Z,60.67
2022-12-28T04:53:03.629Z,58.80
2022-12-28T04:55:32.995Z,60.00
2022-12-28T04:58:00.599Z,54.88
2022-12-28T05:00:27.462Z,54.42
2022-12-28T05:02:54.677Z,60.47
2022-12-28T05:05:21.469Z,54.45
2022-12-28T05:07:48.267Z,58.60
2022-12-28T05:10:15.186Z,61.67
2022-12-28T05:12:41.926Z,58.85
2022-12-28T05:15:09.097Z,56.25
2022-12-28T05:17:36.291Z,60.20
2022-12-28T05:20:04.382Z,56.35
2022-12-28T05:22:34.997Z,56.50
2022-12-28T05:25:04.812Z,56.20
2022-12-28T05:27:31.569Z,52.65
2022-12-28T05:29:58.278Z,56.75
2022-12-28T05:32:24.942Z,57.50
2022-12-28T05:34:51.610Z,53.13
2022-12-28T05:37:21.957Z,54.53
2022-12-28T05:39:49.046Z,56.85
2022-12-28T05:42:15.740Z,53.40
2022-12-28T05:44:42.542Z,55.80
2022-12-28T05:47:09.287Z,58.83
2022-12-28T05:49:36.007Z,54.20
2022-12-28T05:52:02.720Z,54.67
2022-12-28T05:54:29.405Z,56.33
2022-12-28T05:56:56.140Z,52.97
2022-12-28T05:59:22.815Z,61.53
2022-12-28T06:01:49.743Z,58.38
2022-12-28T06:04:19.070Z,58.83
2022-12-28T06:06:47.428Z,54.65
2022-12-28T06:09:14.971Z,53.58
2022-12-28T06:11:41.992Z,51.63
2022-12-28T06:14:09.091Z,53.35
2022-12-28T06:16:38.713Z,52.95
2022-12-28T06:19:11.149Z,57.08
2022-12-28T06:21:40.554Z,51.80
2022-12-28T06:24:09.069Z,56.63
2022-12-28T06:26:37.652Z,55.17
2022-12-28T06:29:04.848Z,53.88
2022-12-28T06:31:34.445Z,56.20
2022-12-28T06:34:02.787Z,52.22
2022-12-28T06:36:32.657Z,50.60
2022-12-28T06:39:00.553Z,59.50
2022-12-28T06:41:28.640Z,58.13
2022-12-28T06:43:56.332Z,50.15
2022-12-28T06:46:24.940Z,53.25
2022-12-28T06:48:51.978Z,58.85
2022-12-28T06:51:21.692Z,52.95
2022-12-28T06:53:50.032Z,63.08
2022-12-28T06:56:18.559Z,52.45
2022-12-28T06:58:46.620Z,50.58
2022-12-28T07:01:17.862Z,47.38
2022-12-28T07:03:46.008Z,48.28
2022-12-28T07:06:14.182Z,51.33
2022-12-28T07:08:41.268Z,50.58
2022-12-28T07:11:19.790Z,51.80
2022-12-28T07:13:46.826Z,44.65
2022-12-28T07:16:15.650Z,51.45
2022-12-28T07:18:42.723Z,50.47
2022-12-28T07:21:16.787Z,51.63
2022-12-28T07:23:43.652Z,48.72
2022-12-28T07:26:20.528Z,47.58
2022-12-28T07:28:48.969Z,50.75
2022-12-28T07:31:21.404Z,49.05
2022-12-28T07:33:49.345Z,47.65
2022-12-28T07:36:18.105Z,47.95
2022-12-28T07:38:44.896Z,45.67
2022-12-28T07:41:13.033Z,46.90
2022-12-28T07:43:40.227Z,44.35
2022-12-28T07:46:08.764Z,47.65
2022-12-28T07:48:37.136Z,49.38
2022-12-28T07:51:08.433Z,45.60
2022-12-28T07:53:35.130Z,44.10
2022-12-28T07:56:01.971Z,47.85
2022-12-28T07:58:28.721Z,50.80
2022-12-28T08:00:55.658Z,41.97
2022-12-28T08:03:22.728Z,43.53
2022-12-28T08:05:49.524Z,47.63
2022-12-28T08:08:16.335Z,42.10
2022-12-28T08:10:43.252Z,41.10
2022-12-28T08:13:10.080Z,39.55
2022-12-28T08:15:36.788Z,43.80
2022-12-28T08:18:03.690Z,44.35
2022-12-28T08:20:30.459Z,40.42
2022-12-28T08:22:57.319Z,41.72
2022-12-28T08:25:24.096Z,44.05
2022-12-28T08:27:50.945Z,54.45
2022-12-28T08:30:17.760Z,47.38
2022-12-28T08:32:44.577Z,48.65
2022-12-28T08:35:11.519Z,47.78
2022-12-28T08:37:38.284Z,48.25
2022-12-28T08:40:05.752Z,52.40
2022-12-28T08:42:32.545Z,52.42
2022-12-28T08:44:59.304Z,60.83
2022-12-28T08:47:26.340Z,60.47
2022-12-28T08:49:53.043Z,63.60
2022-12-28T08:52:19.708Z,61.65
2022-12-28T08:54:53.427Z,69.75
2022-12-28T08:57:20.160Z,80.13
2022-12-28T08:59:46.890Z,70.05
2022-12-28T09:02:13.854Z,84.95
2022-12-28T09:04:41.111Z,98.32
2022-12-28T09:07:07.771Z,98.82
2022-12-28T09:09:35.175Z,103.13
2022-12-28T09:12:01.941Z,98.45
2022-12-28T09:14:28.716Z,95.53
2022-12-28T09:16:55.522Z,99.53
2022-12-28T09:19:22.680Z,100.57
2022-12-28T09:21:52.274Z,97.10
2022-12-28T09:24:19.285Z,91.10
2022-12-28T09:26:46.127Z,95.55
2022-12-28T09:29:14.145Z,96.30
2022-12-28T09:31:41.815Z,101.88
2022-12-28T09:36:59.533Z,105.95
2022-12-28T09:39:26.310Z,109.80
2022-12-28T09:41:57.697Z,103.25
2022-12-28T09:44:30.332Z,106.72
2022-12-28T09:47:06.759Z,101.53
2022-12-28T09:49:42.066Z,109.05
2022-12-28T09:52:14.316Z,101.30
2022-12-28T09:54:41.851Z,94.50
2022-12-28T09:57:15.210Z,103.80
2022-12-28T09:59:42.775Z,96.82
2022-12-28T10:02:30.142Z,102.07
2022-12-28T10:04:57.218Z,99.45
2022-12-28T10:07:24.231Z,97.15
2022-12-28T10:09:51.377Z,92.35
2022-12-28T10:12:21.292Z,100.38
2022-12-28T10:14:49.432Z,103.00
2022-12-28T10:17:20.361Z,96.20
2022-12-28T10:19:48.280Z,101.85
2022-12-28T10:22:19.767Z,99.63
2022-12-28T10:24:47.861Z,100.45
2022-12-28T10:27:34.788Z,95.28
2022-12-28T10:30:06.678Z,93.45
2022-12-28T10:33:01.758Z,87.72
2022-12-28T10:35:37.325Z,93.72
2022-12-28T10:38:07.625Z,92.20
2022-12-28T10:40:38.070Z,90.50
2022-12-28T10:43:10.542Z,95.13
2022-12-28T10:45:46.186Z,94.07
2022-12-28T10:48:19.996Z,90.90
2022-12-28T10:50:55.581Z,85.80
2022-12-28T10:56:23.972Z,86.60
2022-12-28T10:59:15.042Z,91.05
2022-12-28T11:01:43.650Z,94.78
2022-12-28T11:04:21.398Z,85.07
2022-12-28T11:07:00.384Z,89.88
2022-12-28T11:09:35.287Z,94.03
2022-12-28T11:12:24.599Z,86.18
2022-12-28T11:14:56.307Z,87.00
2022-12-28T11:17:28.571Z,90.05
2022-12-28T11:20:06.194Z,88.07
2022-12-28T11:22:33.826Z,86.22
2022-12-28T11:25:02.568Z,84.38
2022-12-28T11:27:29.468Z,87.22
2022-12-28T11:29:57.464Z,84.30
2022-12-28T11:32:26.098Z,88.65
2022-12-28T11:34:55.378Z,82.18
2022-12-28T11:37:22.141Z,79.30
2022-12-28T11:39:50.859Z,81.18
2022-12-28T11:42:41.249Z,87.75
2022-12-28T11:45:16.865Z,87.55
2022-12-28T11:47:43.743Z,78.88
2022-12-28T11:50:39.599Z,78.40
2022-12-28T11:53:21.310Z,80.50
2022-12-28T11:55:59.576Z,81.72
2022-12-28T11:58:35.785Z,81.32
2022-12-28T12:01:02.680Z,80.57
2022-12-28T12:03:57.278Z,85.72
2022-12-28T12:06:42.478Z,82.40
2022-12-28T12:09:21.552Z,86.10
2022-12-28T12:11:58.944Z,90.22
2022-12-28T12:14:36.323Z,86.50
2022-12-28T12:17:34.754Z,84.85
2022-12-28T12:20:43.146Z,88.68
2022-12-28T12:23:18.794Z,84.72
2022-12-28T12:28:31.347Z,88.28
2022-12-28T12:30:58.810Z,90.60
2022-12-28T12:33:30.480Z,87.55
2022-12-28T12:36:06.170Z,91.25
2022-12-28T12:41:59.767Z,89.72
2022-12-28T12:44:52.477Z,95.07
2022-12-28T12:48:04.480Z,97.60
2022-12-28T12:50:45.537Z,97.95
2022-12-28T12:53:27.307Z,97.15
2022-12-28T12:56:12.472Z,90.10
2022-12-28T12:58:56.196Z,98.17
2022-12-28T13:01:36.937Z,94.13
2022-12-28T13:04:14.750Z,93.68
2022-12-28T13:06:42.813Z,96.40
2022-12-28T13:09:16.951Z,89.05
2022-12-28T13:11:43.951Z,92.15
2022-12-28T13:14:20.034Z,101.20
2022-12-28T13:16:58.239Z,91.78
2022-12-28T13:19:28.151Z,96.70
2022-12-28T13:21:57.879Z,92.95
2022-12-28T13:24:35.177Z,96.13
2022-12-28T13:27:07.668Z,90.50
2022-12-28T13:29:39.951Z,96.53
2022-12-28T13:32:23.228Z,101.20
2022-12-28T13:34:50.890Z,99.32
2022-12-28T13:37:18.985Z,99.78
2022-12-28T13:39:47.854Z,96.28
2022-12-28T13:42:22.078Z,100.22
2022-12-28T13:44:53.722Z,98.75
2022-12-28T13:47:38.488Z,100.68
2022-12-28T13:50:17.397Z,100.03
2022-12-28T13:52:50.554Z,100.43
2022-12-28T13:55:24.938Z,100.18
2022-12-28T13:57:59.764Z,101.13
2022-12-28T14:00:29.841Z,105.03
2022-12-28T14:02:58.673Z,104.40
2022-12-28T14:05:30.326Z,101.55
2022-12-28T14:07:59.429Z,104.57
2022-12-28T14:10:27.312Z,105.78
2022-12-28T14:12:55.018Z,97.85
2022-12-28T14:15:22.586Z,100.13
2022-12-28T14:17:51.437Z,102.63
2022-12-28T14:20:18.434Z,100.80
2022-12-28T14:22:45.431Z,103.15
2022-12-28T14:25:15.376Z,104.03
2022-12-28T14:27:57.034Z,107.38
2022-12-28T14:30:31.220Z,108.65
2022-12-28T14:33:11.565Z,100.35
2022-12-28T14:35:49.029Z,99.47
2022-12-28T14:38:22.814Z,102.50
2022-12-28T14:40:58.376Z,99.95
2022-12-28T14:46:05.021Z,91.40
2022-12-28T14:48:37.492Z,90.80
2022-12-28T14:51:17.627Z,95.20
2022-12-28T14:53:45.517Z,94.57
2022-12-28T14:56:19.580Z,93.30
2022-12-28T14:58:55.262Z,101.35
2022-12-28T15:03:49.348Z,87.65
2022-12-28T15:06:16.468Z,93.57
2022-12-28T15:08:50.926Z,88.47
2022-12-28T15:11:19.260Z,96.10
2022-12-28T15:13:46.562Z,98.20
2022-12-28T15:16:14.375Z,104.55
2022-12-28T15:18:44.985Z,99.05
2022-12-28T15:21:21.165Z,106.43
2022-12-28T15:23:52.544Z,102.53
2022-12-28T15:26:20.004Z,101.70
2022-12-28T15:28:46.800Z,101.60
2022-12-28T15:31:17.177Z,103.72
2022-12-28T15:33:44.863Z,101.28
2022-12-28T15:36:17.587Z,97.28
2022-12-28T15:38:46.574Z,110.20
2022-12-28T15:41:33.054Z,101.57
2022-12-28T15:44:00.111Z,98.45
2022-12-28T15:46:27.004Z,90.95
2022-12-28T15:48:53.668Z,91.53
2022-12-28T15:51:20.612Z,97.25
2022-12-28T15:53:47.348Z,86.68
2022-12-28T15:56:32.772Z,86.95
2022-12-28T15:59:00.849Z,83.90
2022-12-28T16:01:29.685Z,90.25
2022-12-28T16:03:59.185Z,92.90
2022-12-28T16:06:27.862Z,87.88
2022-12-28T16:08:56.638Z,87.85
2022-12-28T16:11:24.112Z,85.35
2022-12-28T16:13:52.872Z,96.15
2022-12-28T16:16:21.279Z,90.82
2022-12-28T16:18:48.693Z,90.65
2022-12-28T16:21:16.196Z,91.35
2022-12-28T16:23:45.225Z,94.07
2022-12-28T16:26:13.680Z,85.13
2022-12-28T16:28:40.593Z,94.38
2022-12-28T16:31:08.427Z,81.10
2022-12-28T16:33:35.684Z,87.43
2022-12-28T16:36:02.358Z,90.22
2022-12-28T16:38:29.250Z,91.28
2022-12-28T16:40:57.149Z,86.80
2022-12-28T16:43:24.272Z,88.55
2022-12-28T16:45:51.120Z,87.75
2022-12-28T16:48:18.388Z,95.95
2022-12-28T16:50:45.101Z,89.45
2022-12-28T16:53:12.732Z,87.50
2022-12-28T16:55:42.242Z,87.65
2022-12-28T16:58:09.867Z,83.20
2022-12-28T17:00:36.713Z,93.00
2022-12-28T17:03:03.776Z,94.90
2022-12-28T17:05:34.986Z,96.35
2022-12-28T17:08:03.039Z,93.93
2022-12-28T17:10:30.538Z,95.00
2022-12-28T17:12:57.821Z,96.03
2022-12-28T17:15:24.811Z,93.82
2022-12-28T17:17:51.642Z,97.38
2022-12-28T17:20:18.631Z,99.43
2022-12-28T17:22:45.363Z,100.88
2022-12-28T17:25:12.189Z,95.32
2022-12-28T17:27:38.886Z,91.85
2022-12-28T17:30:06.042Z,89.90
2022-12-28T17:32:33.653Z,96.35
2022-12-28T17:35:00.344Z,96.25
2022-12-28T17:37:27.103Z,97.22
2022-12-28T17:39:53.890Z,102.05
2022-12-28T17:42:20.656Z,104.03
2022-12-28T17:44:48.528Z,99.57
2022-12-28T17:47:15.472Z,117.97
2022-12-28T17:49:42.465Z,109.68
2022-12-28T17:52:09.369Z,111.28
2022-12-28T17:54:36.182Z,111.57
2022-12-28T17:57:02.913Z,102.43
2022-12-28T17:59:29.861Z,110.90
2022-12-28T18:01:57.304Z,100.40
2022-12-28T18:04:24.146Z,102.28
2022-12-28T18:06:50.856Z,96.80
2022-12-28T18:09:21.109Z,94.25
2022-12-28T18:11:52.366Z,110.27
2022-12-28T18:14:19.453Z,100.97
2022-12-28T18:16:46.141Z,108.57
2022-12-28T18:19:13.156Z,95.97
2022-12-28T18:21:41.586Z,103.20
2022-12-28T18:24:13.068Z,103.32
2022-12-28T18:26:40.041Z,100.15
2022-12-28T18:29:06.960Z,97.95
2022-12-28T18:31:33.948Z,102.90
2022-12-28T18:34:03.332Z,93.20
2022-12-28T18:36:30.282Z,96.45
2022-12-28T18:38:56.961Z,97.18
2022-12-28T18:41:25.542Z,97.18
2022-12-28T18:43:56.949Z,96.97
2022-12-28T18:46:23.778Z,93.47
2022-12-28T18:48:50.516Z,91.00
2022-12-28T18:51:18.404Z,93.38
2022-12-28T18:53:45.785Z,94.90
2022-12-28T18:56:18.575Z,99.30
2022-12-28T18:58:49.653Z,89.20
2022-12-28T19:01:55.998Z,93.07
2022-12-28T19:04:10.328Z,91.72
2022-12-28T19:06:38.010Z,92.78
2022-12-28T19:09:06.821Z,93.78
2022-12-28T19:11:34.309Z,100.88
2022-12-28T19:14:03.067Z,90.97
2022-12-28T19:16:31.904Z,91.13
2022-12-28T19:19:00.181Z,96.75
2022-12-28T19:21:30.912Z,90.15
2022-12-28T19:24:03.312Z,93.05
2022-12-28T19:26:31.485Z,94.43
2022-12-28T19:28:58.682Z,96.45
2022-12-28T19:31:26.011Z,92.50
2022-12-28T19:33:52.890Z,90.13
2022-12-28T19:36:19.878Z,97.63
2022-12-28T19:38:47.016Z,93.60
2022-12-28T19:41:15.519Z,91.72
2022-12-28T19:43:43.818Z,85.47
2022-12-28T19:46:12.765Z,91.10
2022-12-28T19:48:39.722Z,91.60
2022-12-28T19:51:07.037Z,89.13
2022-12-28T19:53:34.176Z,83.43
2022-12-28T19:56:16.275Z,91.32
2022-12-28T19:58:44.653Z,86.43
2022-12-28T20:01:14.281Z,87.80
2022-12-28T20:03:42.087Z,97.00
2022-12-28T20:06:18.299Z,86.40
2022-12-28T20:08:46.628Z,82.75
2022-12-28T20:11:13.680Z,87.88
2022-12-28T20:13:41.126Z,88.93
2022-12-28T20:16:09.201Z,90.82
2022-12-28T20:18:36.251Z,85.38
2022-12-28T20:21:21.979Z,86.78
2022-12-28T20:26:17.571Z,91.00
2022-12-28T20:28:44.970Z,92.82
2022-12-28T20:31:14.120Z,88.20
2022-12-28T20:33:42.000Z,89.10
2022-12-28T20:36:12.354Z,92.85
2022-12-28T20:38:39.352Z,86.60
2022-12-28T20:41:32.165Z,85.22
2022-12-28T20:44:00.412Z,88.85
2022-12-28T20:46:27.854Z,92.15
2022-12-28T20:48:55.007Z,92.80
2022-12-28T20:51:21.746Z,93.82
2022-12-28T20:53:48.639Z,92.35
2022-12-28T20:56:15.400Z,90.15
2022-12-28T20:58:42.177Z,94.53
2022-12-28T21:01:11.865Z,92.60
2022-12-28T21:03:39.305Z,88.18
2022-12-28T21:06:06.772Z,96.03
2022-12-28T21:08:33.708Z,93.90
2022-12-28T21:11:01.158Z,89.65
2022-12-28T21:13:28.397Z,92.30
2022-12-28T21:15:55.683Z,97.15
2022-12-28T21:18:23.161Z,94.63
2022-12-28T21:20:55.494Z,98.85
2022-12-28T21:23:22.763Z,89.85
2022-12-28T21:25:49.792Z,99.70
2022-12-28T21:28:16.660Z,93.18
2022-12-28T21:30:43.387Z,95.85
2022-12-28T21:33:10.528Z,94.70
2022-12-28T21:35:37.290Z,89.93
2022-12-28T21:38:05.190Z,98.28
2022-12-28T21:40:32.269Z,92.72
2022-12-28T21:42:58.955Z,97.55
2022-12-28T21:45:25.732Z,92.50
2022-12-28T21:47:52.723Z,98.65
2022-12-28T21:50:19.539Z,91.65
2022-12-28T21:52:46.383Z,99.20
2022-12-28T21:55:31.529Z,93.05
2022-12-28T21:57:59.756Z,86.97
2022-12-28T22:00:45.351Z,88.72
2022-12-28T22:03:30.541Z,91.88
2022-12-28T22:06:06.172Z,100.00
2022-12-28T22:11:38.559Z,85.00
2022-12-28T22:14:06.278Z,87.38
2022-12-28T22:16:34.445Z,95.47
2022-12-28T22:19:03.894Z,87.95
2022-12-28T22:21:31.408Z,99.53
2022-12-28T22:23:58.208Z,90.93
2022-12-28T22:26:25.289Z,101.00
2022-12-28T22:28:52.062Z,100.40
2022-12-28T22:31:18.866Z,94.47
2022-12-28T22:33:46.155Z,92.82
2022-12-28T22:36:15.524Z,98.03
2022-12-28T22:38:42.289Z,92.68
2022-12-28T22:41:09.081Z,94.05
2022-12-28T22:43:35.891Z,91.30
2022-12-28T22:46:11.373Z,96.50
2022-12-28T22:48:38.578Z,99.85
2022-12-28T22:51:10.886Z,97.75
2022-12-28T22:53:38.045Z,102.32
2022-12-28T22:56:07.866Z,92.63
2022-12-28T22:58:34.617Z,93.85
2022-12-28T23:01:08.359Z,95.25
2022-12-28T23:03:38.569Z,100.10
2022-12-28T23:06:06.687Z,103.03
2022-12-28T23:08:33.783Z,103.25
2022-12-28T23:11:02.758Z,101.90
2022-12-28T23:13:32.093Z,100.85
2022-12-28T23:16:02.323Z,97.03
2022-12-28T23:18:48.301Z,99.38
2022-12-28T23:21:39.917Z,101.70
2022-12-28T23:24:30.465Z,104.80
2022-12-28T23:27:17.192Z,103.95
2022-12-28T23:29:44.555Z,97.57
2022-12-28T23:32:11.516Z,95.43
2022-12-28T23:34:38.217Z,105.63
2022-12-28T23:37:04.980Z,95.50
2022-12-28T23:39:31.737Z,101.15
2022-12-28T23:41:58.525Z,99.00
2022-12-28T23:44:26.491Z,102.57
2022-12-28T23:46:59.023Z,102.55
2022-12-28T23:49:27.056Z,99.03
2022-12-28T23:51:53.882Z,99.60
2022-12-28T23:54:21.048Z,89.65
2022-12-28T23:56:51.821Z,96.60
2022-12-28T23:59:18.490Z,91.43
